COYOTE (LAKE MENDOCINO) (COY)

Elevation: 720' · RUSSIAN R basin · Operator: US Army Corps of Engineers

Provisional data, subject to change.
Query executed Wednesday at 17:13:30   clock

Select a sensor type for a plot of data.
Note: Reservoir Flows are daily averages.

Earlier

Date RES ELE    STORAGE    RES CHG    TOC STO    ABV TOC    OUTFLOW    INFLOW    PPT INC    TEMP MN    TEMP MX    EVP PAN   
 FEET   AF   AF   AF   AF   CFS   CFS   INCHES   DEG F   DEG F   INCHES  
10/27/2014 709.72 28457 -77 72287 -43830 84 49 0.01 5 22 0.10
10/28/2014 709.65 28381 -76 71317 -42936 84 50 0.00 5 25 0.11
10/29/2014 709.60 28326 -55 70348 -42022 84 61 0.00 9 29 0.11
10/30/2014 709.54 28261 -65 69379 -41118 81 52 0.00 11 25 0.09
10/31/2014 709.56 28283 22 68410 -40127 76 90 0.56 11 19 0.07
11/01/2014 709.51 28228 -55 68410 -40182 74 51 0.00 7 18 0.09
11/02/2014 709.49 28206 -22 68410 -40204 70 63 0.00 3 21 0.09
11/03/2014 709.45 28163 -43 68410 -40247 68 50 0.00 6 22 0.08
11/04/2014 709.42 28131 -32 68410 -40279 68 56 0.00 6 24 0.09
11/05/2014 709.40 28109 -22 68410 -40301 68 61 0.00 8 26 0.09
11/06/2014 709.38 28087 -22 68410 -40323 68 61 0.00 9 25 0.09
11/07/2014 709.35 28055 -32 68410 -40355 69 57 0.00 8 26 0.09
11/08/2014 709.31 28012 -43 68410 -40398 70 53 0.00 7 28 0.10
11/09/2014 709.29 27990 -22 68410 -40420 70 63 0.00 8 28 0.10
11/10/2014 709.25 27947 -43 68410 -40463 70 52 0.01 6 28 0.09
11/11/2014 709.22 27915 -32 68410 -40495 70 55 0.00 10 15 0.03
11/12/2014 709.19 27882 -33 68410 -40528 66 53 0.04 9 19 0.07
11/13/2014 709.22 27915 33 68410 -40495 64 83 0.48 9 19 0.05
11/14/2014 709.20 27893 -22 68410 -40517 62 54 0.02 7 20 0.07
11/15/2014 709.20 27893 0 68410 -40517 58 61 0.00 6 20 0.06
11/16/2014 709.18 27872 -21 68410 -40538 58 50 0.00 4 18 0.05
11/17/2014 709.11 27797 -75 68410 -40613 58 24 0.00 1 20 0.07
11/18/2014 709.05 27732 -65 68410 -40678 57 27 0.00 2 18 0.06
11/19/2014 709.05 27732 0 68410 -40678 58 59 0.50 9 14 0.03
11/20/2014 709.11 27797 65 68410 -40613 57 91 0.75 10 13 0.02
11/21/2014 709.13 27818 -- 68410 -- 50 61 0.32 9 12 0.03
11/22/2014 709.37 28076 -- 68410 -- 41 173 0.91 7 18 0.05
11/23/2014 709.39 28098 -- 68410 -40312 35 48 0.00 5 17 0.05
11/24/2014 709.40 28109 11 68410 -40301 39 48 0.00 2 22 0.07
11/25/2014 709.40 28109 0 68410 -40301 45 48 0.00 4 22 0.06
11/26/2014 -- -- -- -- -- -- -- -- -- -- --

Later | Latest

Warning! This data is preliminary and subject to revision.

Show COY Map | Plot COY Data | 1 Month COY Data | Real-Time COY Data | COY Info